sensor_id;sensor_type;location;lat;lon;timestamp;temperature;humidity
11619;DHT22;5865;48.776;9.280;2023-02-28T00:00:29;-3.10;99.90
11619;DHT22;5865;48.776;9.280;2023-02-28T00:02:58;-3.10;99.90
11619;DHT22;5865;48.776;9.280;2023-02-28T00:05:26;-3.10;99.90
11619;DHT22;5865;48.776;9.280;2023-02-28T00:07:54;-2.90;99.90
11619;DHT22;5865;48.776;9.280;2023-02-28T00:10:26;-2.70;99.90
11619;DHT22;5865;48.776;9.280;2023-02-28T00:12:55;-2.70;99.90
11619;DHT22;5865;48.776;9.280;2023-02-28T00:15:23;-2.60;99.90
11619;DHT22;5865;48.776;9.280;2023-02-28T00:17:50;-2.80;99.90
11619;DHT22;5865;48.776;9.280;2023-02-28T00:20:19;-2.90;99.90
11619;DHT22;5865;48.776;9.280;2023-02-28T00:22:48;-3.20;99.90
11619;DHT22;5865;48.776;9.280;2023-02-28T00:25:18;-3.30;99.90
11619;DHT22;5865;48.776;9.280;2023-02-28T00:27:45;-3.40;99.90
11619;DHT22;5865;48.776;9.280;2023-02-28T00:30:15;-3.40;99.90
11619;DHT22;5865;48.776;9.280;2023-02-28T00:32:43;-3.30;99.90
11619;DHT22;5865;48.776;9.280;2023-02-28T00:35:11;-3.50;99.90
11619;DHT22;5865;48.776;9.280;2023-02-28T00:37:42;-3.30;99.90
11619;DHT22;5865;48.776;9.280;2023-02-28T00:40:10;-3.10;99.90
11619;DHT22;5865;48.776;9.280;2023-02-28T00:42:38;-3.40;99.90
11619;DHT22;5865;48.776;9.280;2023-02-28T00:45:07;-3.30;99.90
11619;DHT22;5865;48.776;9.280;2023-02-28T00:47:37;-3.10;99.90
11619;DHT22;5865;48.776;9.280;2023-02-28T00:50:05;-3.40;99.90
11619;DHT22;5865;48.776;9.280;2023-02-28T00:52:32;-3.20;99.90
11619;DHT22;5865;48.776;9.280;2023-02-28T00:55:01;-3.00;99.90
11619;DHT22;5865;48.776;9.280;2023-02-28T01:09:49;-2.90;99.90
11619;DHT22;5865;48.776;9.280;2023-02-28T01:12:17;-3.00;99.90
11619;DHT22;5865;48.776;9.280;2023-02-28T01:17:14;-3.30;99.90
11619;DHT22;5865;48.776;9.280;2023-02-28T01:27:05;-3.20;99.90
11619;DHT22;5865;48.776;9.280;2023-02-28T01:29:33;-3.30;99.90
11619;DHT22;5865;48.776;9.280;2023-02-28T01:34:27;-3.60;99.90
11619;DHT22;5865;48.776;9.280;2023-02-28T01:36:54;-3.30;99.90
11619;DHT22;5865;48.776;9.280;2023-02-28T01:39:24;-3.50;99.90
11619;DHT22;5865;48.776;9.280;2023-02-28T01:41:51;-3.40;99.90
11619;DHT22;5865;48.776;9.280;2023-02-28T01:45:06;-3.20;99.90
11619;DHT22;5865;48.776;9.280;2023-02-28T01:47:42;-3.30;99.90
11619;DHT22;5865;48.776;9.280;2023-02-28T01:50:13;-3.30;99.90
11619;DHT22;5865;48.776;9.280;2023-02-28T01:52:41;-3.50;99.90
11619;DHT22;5865;48.776;9.280;2023-02-28T01:55:10;-3.50;99.90
11619;DHT22;5865;48.776;9.280;2023-02-28T01:57:40;-3.30;99.90
11619;DHT22;5865;48.776;9.280;2023-02-28T02:00:13;-3.30;99.90
11619;DHT22;5865;48.776;9.280;2023-02-28T02:02:47;-3.30;99.90
11619;DHT22;5865;48.776;9.280;2023-02-28T02:05:16;-3.20;99.90
11619;DHT22;5865;48.776;9.280;2023-02-28T02:07:46;-3.00;99.90
11619;DHT22;5865;48.776;9.280;2023-02-28T02:10:16;-2.90;99.90
11619;DHT22;5865;48.776;9.280;2023-02-28T02:13:07;-2.60;99.90
11619;DHT22;5865;48.776;9.280;2023-02-28T02:15:41;-2.80;99.90
11619;DHT22;5865;48.776;9.280;2023-02-28T02:21:08;-3.00;99.90
11619;DHT22;5865;48.776;9.280;2023-02-28T02:24:22;-3.10;99.90
11619;DHT22;5865;48.776;9.280;2023-02-28T02:38:29;-2.80;99.90
11619;DHT22;5865;48.776;9.280;2023-02-28T02:41:05;-2.70;99.90
11619;DHT22;5865;48.776;9.280;2023-02-28T02:43:36;-3.00;99.90
11619;DHT22;5865;48.776;9.280;2023-02-28T02:46:07;-2.80;99.90
11619;DHT22;5865;48.776;9.280;2023-02-28T02:48:38;-2.80;99.90
11619;DHT22;5865;48.776;9.280;2023-02-28T02:51:10;-2.80;99.90
11619;DHT22;5865;48.776;9.280;2023-02-28T02:53:44;-2.80;99.90
11619;DHT22;5865;48.776;9.280;2023-02-28T02:56:13;-2.70;99.90
11619;DHT22;5865;48.776;9.280;2023-02-28T02:58:42;-2.70;99.90
11619;DHT22;5865;48.776;9.280;2023-02-28T03:01:12;-2.40;99.90
11619;DHT22;5865;48.776;9.280;2023-02-28T03:03:41;-2.40;99.90
11619;DHT22;5865;48.776;9.280;2023-02-28T03:08:38;-2.40;99.90
11619;DHT22;5865;48.776;9.280;2023-02-28T03:11:06;-2.30;99.90
11619;DHT22;5865;48.776;9.280;2023-02-28T03:13:55;-2.30;99.90
11619;DHT22;5865;48.776;9.280;2023-02-28T03:16:54;-2.50;99.90
11619;DHT22;5865;48.776;9.280;2023-02-28T03:19:36;-2.20;99.90
11619;DHT22;5865;48.776;9.280;2023-02-28T03:22:14;-2.40;99.90
11619;DHT22;5865;48.776;9.280;2023-02-28T03:24:50;-2.50;99.90
11619;DHT22;5865;48.776;9.280;2023-02-28T03:27:23;-2.20;99.90
11619;DHT22;5865;48.776;9.280;2023-02-28T03:29:56;-2.10;99.90
11619;DHT22;5865;48.776;9.280;2023-02-28T03:32:27;-2.10;99.90
11619;DHT22;5865;48.776;9.280;2023-02-28T03:34:59;-2.10;99.90
11619;DHT22;5865;48.776;9.280;2023-02-28T03:37:30;-2.20;99.90
11619;DHT22;5865;48.776;9.280;2023-02-28T03:40:04;-2.00;99.90
11619;DHT22;5865;48.776;9.280;2023-02-28T03:42:36;-2.00;99.90
11619;DHT22;5865;48.776;9.280;2023-02-28T03:45:08;-2.20;99.90
11619;DHT22;5865;48.776;9.280;2023-02-28T03:47:40;-2.00;99.90
11619;DHT22;5865;48.776;9.280;2023-02-28T03:50:12;-1.70;99.90
11619;DHT22;5865;48.776;9.280;2023-02-28T03:52:46;-1.70;99.90
11619;DHT22;5865;48.776;9.280;2023-02-28T03:55:15;-1.90;99.90
11619;DHT22;5865;48.776;9.280;2023-02-28T03:57:51;-1.90;99.90
11619;DHT22;5865;48.776;9.280;2023-02-28T04:00:24;-1.90;99.90
11619;DHT22;5865;48.776;9.280;2023-02-28T04:02:54;-1.80;99.90
11619;DHT22;5865;48.776;9.280;2023-02-28T04:05:22;-1.80;99.90
11619;DHT22;5865;48.776;9.280;2023-02-28T04:10:18;-1.70;99.90
11619;DHT22;5865;48.776;9.280;2023-02-28T04:12:45;-1.70;99.90
11619;DHT22;5865;48.776;9.280;2023-02-28T04:25:06;-1.40;99.90
11619;DHT22;5865;48.776;9.280;2023-02-28T04:37:22;-1.60;99.90
11619;DHT22;5865;48.776;9.280;2023-02-28T04:47:16;-1.50;99.90
11619;DHT22;5865;48.776;9.280;2023-02-28T04:52:10;-1.50;99.90
11619;DHT22;5865;48.776;9.280;2023-02-28T05:09:27;-0.90;99.90
11619;DHT22;5865;48.776;9.280;2023-02-28T05:11:55;-1.30;99.90
11619;DHT22;5865;48.776;9.280;2023-02-28T05:14:22;-1.20;99.90
11619;DHT22;5865;48.776;9.280;2023-02-28T05:16:50;-1.30;99.90
11619;DHT22;5865;48.776;9.280;2023-02-28T05:19:17;-1.10;99.90
11619;DHT22;5865;48.776;9.280;2023-02-28T05:21:50;-1.40;99.90
11619;DHT22;5865;48.776;9.280;2023-02-28T05:26:48;-1.30;99.90
11619;DHT22;5865;48.776;9.280;2023-02-28T05:34:12;-1.20;99.90
11619;DHT22;5865;48.776;9.280;2023-02-28T05:41:39;-1.40;99.90
11619;DHT22;5865;48.776;9.280;2023-02-28T05:49:01;-1.00;99.90
11619;DHT22;5865;48.776;9.280;2023-02-28T05:53:59;-1.40;99.90
11619;DHT22;5865;48.776;9.280;2023-02-28T05:56:27;-1.10;99.90
11619;DHT22;5865;48.776;9.280;2023-02-28T06:01:24;-1.30;99.90
11619;DHT22;5865;48.776;9.280;2023-02-28T06:06:18;-1.10;99.90
11619;DHT22;5865;48.776;9.280;2023-02-28T06:11:13;-1.00;99.90
11619;DHT22;5865;48.776;9.280;2023-02-28T06:16:08;-0.80;99.90
11619;DHT22;5865;48.776;9.280;2023-02-28T06:48:16;-0.90;99.90
11619;DHT22;5865;48.776;9.280;2023-02-28T07:00:41;-0.60;99.90
11619;DHT22;5865;48.776;9.280;2023-02-28T07:08:05;-0.50;99.90
11619;DHT22;5865;48.776;9.280;2023-02-28T07:22:53;-0.50;99.90
11619;DHT22;5865;48.776;9.280;2023-02-28T07:30:17;-0.40;99.90
11619;DHT22;5865;48.776;9.280;2023-02-28T07:35:13;-0.40;99.90
11619;DHT22;5865;48.776;9.280;2023-02-28T07:40:11;-0.10;99.90
11619;DHT22;5865;48.776;9.280;2023-02-28T07:42:38;-0.20;99.90
11619;DHT22;5865;48.776;9.280;2023-02-28T07:45:07;-0.10;99.90
11619;DHT22;5865;48.776;9.280;2023-02-28T08:04:46;0.40;99.90
11619;DHT22;5865;48.776;9.280;2023-02-28T08:07:14;0.10;99.90
11619;DHT22;5865;48.776;9.280;2023-02-28T08:09:43;0.20;99.90
11619;DHT22;5865;48.776;9.280;2023-02-28T08:12:10;0.10;99.90
11619;DHT22;5865;48.776;9.280;2023-02-28T08:29:23;-0.10;99.90
11619;DHT22;5865;48.776;9.280;2023-02-28T08:49:10;0.40;99.90
11619;DHT22;5865;48.776;9.280;2023-02-28T08:51:38;0.80;99.90
11619;DHT22;5865;48.776;9.280;2023-02-28T09:44:46;1.90;99.90
11619;DHT22;5865;48.776;9.280;2023-02-28T09:47:21;1.90;99.90
11619;DHT22;5865;48.776;9.280;2023-02-28T09:57:32;2.00;99.90
11619;DHT22;5865;48.776;9.280;2023-02-28T10:00:06;2.00;99.90
11619;DHT22;5865;48.776;9.280;2023-02-28T10:02:50;2.20;99.90
11619;DHT22;5865;48.776;9.280;2023-02-28T10:05:23;1.80;99.90
11619;DHT22;5865;48.776;9.280;2023-02-28T10:08:00;2.20;99.90
11619;DHT22;5865;48.776;9.280;2023-02-28T10:10:32;2.50;99.90
11619;DHT22;5865;48.776;9.280;2023-02-28T10:13:02;2.30;99.90
11619;DHT22;5865;48.776;9.280;2023-02-28T10:15:32;2.60;99.90
11619;DHT22;5865;48.776;9.280;2023-02-28T10:18:04;2.80;99.90
11619;DHT22;5865;48.776;9.280;2023-02-28T10:20:35;2.90;99.90
11619;DHT22;5865;48.776;9.280;2023-02-28T10:23:11;3.10;99.90
11619;DHT22;5865;48.776;9.280;2023-02-28T10:25:39;3.30;99.90
11619;DHT22;5865;48.776;9.280;2023-02-28T10:28:10;2.90;99.90
11619;DHT22;5865;48.776;9.280;2023-02-28T10:30:41;2.80;99.90
11619;DHT22;5865;48.776;9.280;2023-02-28T10:33:17;2.70;99.90
11619;DHT22;5865;48.776;9.280;2023-02-28T10:38:17;2.30;99.90
11619;DHT22;5865;48.776;9.280;2023-02-28T10:40:44;2.50;99.90
11619;DHT22;5865;48.776;9.280;2023-02-28T10:43:22;2.50;99.90
11619;DHT22;5865;48.776;9.280;2023-02-28T10:45:56;2.20;99.90
11619;DHT22;5865;48.776;9.280;2023-02-28T10:48:31;1.80;99.90
11619;DHT22;5865;48.776;9.280;2023-02-28T10:51:01;2.20;99.90
11619;DHT22;5865;48.776;9.280;2023-02-28T10:53:45;2.80;99.90
11619;DHT22;5865;48.776;9.280;2023-02-28T10:56:16;2.80;99.90
11619;DHT22;5865;48.776;9.280;2023-02-28T10:58:53;2.60;99.90
11619;DHT22;5865;48.776;9.280;2023-02-28T11:01:23;2.30;99.90
11619;DHT22;5865;48.776;9.280;2023-02-28T11:03:51;2.30;99.90
11619;DHT22;5865;48.776;9.280;2023-02-28T11:06:21;2.50;99.90
11619;DHT22;5865;48.776;9.280;2023-02-28T11:11:20;2.80;99.90
11619;DHT22;5865;48.776;9.280;2023-02-28T11:13:51;3.10;99.90
11619;DHT22;5865;48.776;9.280;2023-02-28T11:18:49;3.40;99.90
11619;DHT22;5865;48.776;9.280;2023-02-28T11:21:21;3.20;99.90
11619;DHT22;5865;48.776;9.280;2023-02-28T11:23:51;2.90;99.90
11619;DHT22;5865;48.776;9.280;2023-02-28T11:26:37;3.10;99.90
11619;DHT22;5865;48.776;9.280;2023-02-28T11:29:17;3.30;99.90
11619;DHT22;5865;48.776;9.280;2023-02-28T11:32:02;3.50;99.90
11619;DHT22;5865;48.776;9.280;2023-02-28T11:36:59;4.00;99.90
11619;DHT22;5865;48.776;9.280;2023-02-28T11:39:30;4.30;99.90
11619;DHT22;5865;48.776;9.280;2023-02-28T11:42:09;4.40;99.90
11619;DHT22;5865;48.776;9.280;2023-02-28T11:44:52;4.40;99.90
11619;DHT22;5865;48.776;9.280;2023-02-28T11:47:28;4.50;99.90
11619;DHT22;5865;48.776;9.280;2023-02-28T11:50:09;4.80;99.90
11619;DHT22;5865;48.776;9.280;2023-02-28T11:52:45;4.30;99.90
11619;DHT22;5865;48.776;9.280;2023-02-28T11:55:17;4.50;99.90
11619;DHT22;5865;48.776;9.280;2023-02-28T11:58:16;4.80;99.90
11619;DHT22;5865;48.776;9.280;2023-02-28T12:03:47;5.20;99.90
11619;DHT22;5865;48.776;9.280;2023-02-28T12:06:22;5.20;99.90
11619;DHT22;5865;48.776;9.280;2023-02-28T12:09:04;4.80;99.90
11619;DHT22;5865;48.776;9.280;2023-02-28T12:11:44;4.70;99.90
11619;DHT22;5865;48.776;9.280;2023-02-28T12:14:28;4.30;99.90
11619;DHT22;5865;48.776;9.280;2023-02-28T12:17:05;4.20;99.90
11619;DHT22;5865;48.776;9.280;2023-02-28T12:19:42;4.30;99.90
11619;DHT22;5865;48.776;9.280;2023-02-28T12:22:25;4.30;99.90
11619;DHT22;5865;48.776;9.280;2023-02-28T12:25:24;4.10;99.90
11619;DHT22;5865;48.776;9.280;2023-02-28T12:30:26;4.60;99.90
11619;DHT22;5865;48.776;9.280;2023-02-28T12:32:56;4.60;99.90
11619;DHT22;5865;48.776;9.280;2023-02-28T12:37:57;5.40;99.90
11619;DHT22;5865;48.776;9.280;2023-02-28T12:40:41;5.60;99.90
11619;DHT22;5865;48.776;9.280;2023-02-28T12:43:11;5.70;99.90
11619;DHT22;5865;48.776;9.280;2023-02-28T12:45:41;5.70;99.80
11619;DHT22;5865;48.776;9.280;2023-02-28T12:50:41;5.60;99.90
11619;DHT22;5865;48.776;9.280;2023-02-28T12:53:13;5.50;99.90
11619;DHT22;5865;48.776;9.280;2023-02-28T12:55:48;5.60;99.50
11619;DHT22;5865;48.776;9.280;2023-02-28T12:58:24;5.30;99.90
11619;DHT22;5865;48.776;9.280;2023-02-28T13:06:48;5.80;99.40
11619;DHT22;5865;48.776;9.280;2023-02-28T13:14:23;6.40;98.60
11619;DHT22;5865;48.776;9.280;2023-02-28T13:16:58;6.30;98.50
11619;DHT22;5865;48.776;9.280;2023-02-28T13:19:27;6.20;96.90
11619;DHT22;5865;48.776;9.280;2023-02-28T13:21:55;6.20;98.10
11619;DHT22;5865;48.776;9.280;2023-02-28T13:24:48;6.70;97.70
11619;DHT22;5865;48.776;9.280;2023-02-28T13:27:33;6.50;96.30
11619;DHT22;5865;48.776;9.280;2023-02-28T13:32:36;6.00;96.90
11619;DHT22;5865;48.776;9.280;2023-02-28T13:35:38;6.10;97.50
11619;DHT22;5865;48.776;9.280;2023-02-28T13:38:21;5.90;97.40
11619;DHT22;5865;48.776;9.280;2023-02-28T13:46:09;5.90;98.20
11619;DHT22;5865;48.776;9.280;2023-02-28T13:51:35;6.40;95.60
11619;DHT22;5865;48.776;9.280;2023-02-28T13:54:16;8.10;92.90
11619;DHT22;5865;48.776;9.280;2023-02-28T13:56:50;8.20;92.20
11619;DHT22;5865;48.776;9.280;2023-02-28T13:59:26;9.00;89.60
11619;DHT22;5865;48.776;9.280;2023-02-28T14:02:10;9.70;85.70
11619;DHT22;5865;48.776;9.280;2023-02-28T14:04:53;9.70;85.50
11619;DHT22;5865;48.776;9.280;2023-02-28T14:07:25;10.60;75.00
11619;DHT22;5865;48.776;9.280;2023-02-28T14:09:59;10.90;75.10
11619;DHT22;5865;48.776;9.280;2023-02-28T14:12:56;10.80;72.70
11619;DHT22;5865;48.776;9.280;2023-02-28T14:15:50;10.60;70.90
11619;DHT22;5865;48.776;9.280;2023-02-28T14:18:25;9.90;71.30
11619;DHT22;5865;48.776;9.280;2023-02-28T14:20:58;10.50;70.80
11619;DHT22;5865;48.776;9.280;2023-02-28T14:27:11;9.70;73.00
11619;DHT22;5865;48.776;9.280;2023-02-28T14:30:18;10.90;69.40
11619;DHT22;5865;48.776;9.280;2023-02-28T14:33:04;11.90;62.40
11619;DHT22;5865;48.776;9.280;2023-02-28T14:35:45;10.30;65.30
11619;DHT22;5865;48.776;9.280;2023-02-28T14:38:23;9.70;67.90
11619;DHT22;5865;48.776;9.280;2023-02-28T14:40:52;10.10;67.50
11619;DHT22;5865;48.776;9.280;2023-02-28T14:43:22;10.10;67.50
11619;DHT22;5865;48.776;9.280;2023-02-28T14:45:51;11.20;63.80
11619;DHT22;5865;48.776;9.280;2023-02-28T14:48:20;10.40;65.70
11619;DHT22;5865;48.776;9.280;2023-02-28T14:50:49;10.10;66.10
11619;DHT22;5865;48.776;9.280;2023-02-28T14:53:19;10.60;64.80
11619;DHT22;5865;48.776;9.280;2023-02-28T14:58:22;10.80;65.50
11619;DHT22;5865;48.776;9.280;2023-02-28T15:00:51;10.60;64.80
11619;DHT22;5865;48.776;9.280;2023-02-28T15:03:22;10.50;63.80
11619;DHT22;5865;48.776;9.280;2023-02-28T15:05:54;10.50;64.50
11619;DHT22;5865;48.776;9.280;2023-02-28T15:10:54;9.80;68.00
11619;DHT22;5865;48.776;9.280;2023-02-28T15:13:23;9.90;66.50
11619;DHT22;5865;48.776;9.280;2023-02-28T15:15:56;9.90;66.10
11619;DHT22;5865;48.776;9.280;2023-02-28T15:18:32;9.20;68.70
11619;DHT22;5865;48.776;9.280;2023-02-28T15:21:05;8.80;70.20
11619;DHT22;5865;48.776;9.280;2023-02-28T15:23:34;9.00;70.40
11619;DHT22;5865;48.776;9.280;2023-02-28T15:26:03;9.20;69.60
11619;DHT22;5865;48.776;9.280;2023-02-28T15:31:00;9.20;68.90
11619;DHT22;5865;48.776;9.280;2023-02-28T15:33:31;8.20;70.10
11619;DHT22;5865;48.776;9.280;2023-02-28T15:36:13;8.20;70.50
11619;DHT22;5865;48.776;9.280;2023-02-28T15:38:42;8.10;73.20
11619;DHT22;5865;48.776;9.280;2023-02-28T15:41:24;8.10;73.20
11619;DHT22;5865;48.776;9.280;2023-02-28T15:44:14;7.10;74.80
11619;DHT22;5865;48.776;9.280;2023-02-28T15:46:43;6.40;79.50
11619;DHT22;5865;48.776;9.280;2023-02-28T15:49:19;6.30;81.20
11619;DHT22;5865;48.776;9.280;2023-02-28T15:51:51;6.20;81.30
11619;DHT22;5865;48.776;9.280;2023-02-28T15:54:22;5.90;82.40
11619;DHT22;5865;48.776;9.280;2023-02-28T15:56:54;5.70;84.20
11619;DHT22;5865;48.776;9.280;2023-02-28T15:59:24;5.50;86.00
11619;DHT22;5865;48.776;9.280;2023-02-28T16:02:15;5.50;85.80
11619;DHT22;5865;48.776;9.280;2023-02-28T16:05:01;5.40;86.90
11619;DHT22;5865;48.776;9.280;2023-02-28T16:12:27;4.90;90.30
11619;DHT22;5865;48.776;9.280;2023-02-28T16:14:56;4.80;90.60
11619;DHT22;5865;48.776;9.280;2023-02-28T16:17:25;4.70;91.40
11619;DHT22;5865;48.776;9.280;2023-02-28T16:19:54;4.60;91.30
11619;DHT22;5865;48.776;9.280;2023-02-28T16:22:22;4.50;92.20
11619;DHT22;5865;48.776;9.280;2023-02-28T16:27:19;4.30;92.70
11619;DHT22;5865;48.776;9.280;2023-02-28T16:32:15;4.20;93.10
11619;DHT22;5865;48.776;9.280;2023-02-28T16:34:44;4.10;93.60
11619;DHT22;5865;48.776;9.280;2023-02-28T16:37:16;3.90;94.70
11619;DHT22;5865;48.776;9.280;2023-02-28T16:39:46;3.80;95.40
11619;DHT22;5865;48.776;9.280;2023-02-28T16:42:19;3.80;96.10
11619;DHT22;5865;48.776;9.280;2023-02-28T16:49:44;3.50;97.30
11619;DHT22;5865;48.776;9.280;2023-02-28T16:52:13;3.40;97.30
11619;DHT22;5865;48.776;9.280;2023-02-28T16:54:41;3.20;99.80
11619;DHT22;5865;48.776;9.280;2023-02-28T16:57:17;3.00;99.90
11619;DHT22;5865;48.776;9.280;2023-02-28T17:07:10;2.50;99.90
11619;DHT22;5865;48.776;9.280;2023-02-28T17:12:05;2.20;99.90
11619;DHT22;5865;48.776;9.280;2023-02-28T17:14:34;2.10;99.90
11619;DHT22;5865;48.776;9.280;2023-02-28T18:00:13;0.50;99.90
11619;DHT22;5865;48.776;9.280;2023-02-28T18:02:58;0.80;99.90
11619;DHT22;5865;48.776;9.280;2023-02-28T18:08:04;0.60;99.90
11619;DHT22;5865;48.776;9.280;2023-02-28T18:16:11;0.20;99.90
11619;DHT22;5865;48.776;9.280;2023-02-28T18:18:38;0.20;99.90
11619;DHT22;5865;48.776;9.280;2023-02-28T18:21:05;0.10;99.90
11619;DHT22;5865;48.776;9.280;2023-02-28T18:23:32;0.20;99.90
11619;DHT22;5865;48.776;9.280;2023-02-28T18:28:27;0.20;99.90
11619;DHT22;5865;48.776;9.280;2023-02-28T18:30:53;0.20;99.90
11619;DHT22;5865;48.776;9.280;2023-02-28T18:33:22;0.20;99.90
11619;DHT22;5865;48.776;9.280;2023-02-28T18:35:55;0.30;99.90
11619;DHT22;5865;48.776;9.280;2023-02-28T18:38:22;0.20;99.90
11619;DHT22;5865;48.776;9.280;2023-02-28T18:40:53;0.20;99.90
11619;DHT22;5865;48.776;9.280;2023-02-28T18:43:21;0.10;99.90
11619;DHT22;5865;48.776;9.280;2023-02-28T18:45:48;0.10;99.90
11619;DHT22;5865;48.776;9.280;2023-02-28T18:48:15;0.10;99.90
11619;DHT22;5865;48.776;9.280;2023-02-28T18:50:45;0.00;99.90
11619;DHT22;5865;48.776;9.280;2023-02-28T18:53:12;-0.10;99.90
11619;DHT22;5865;48.776;9.280;2023-02-28T18:55:39;0.00;99.90
11619;DHT22;5865;48.776;9.280;2023-02-28T18:58:06;0.00;99.90
11619;DHT22;5865;48.776;9.280;2023-02-28T19:00:33;0.00;99.90
11619;DHT22;5865;48.776;9.280;2023-02-28T19:05:27;0.10;99.90
11619;DHT22;5865;48.776;9.280;2023-02-28T19:08:00;0.00;99.90
11619;DHT22;5865;48.776;9.280;2023-02-28T19:12:56;-0.10;99.90
11619;DHT22;5865;48.776;9.280;2023-02-28T19:15:23;-0.10;99.90
11619;DHT22;5865;48.776;9.280;2023-02-28T19:17:50;-0.40;99.90
11619;DHT22;5865;48.776;9.280;2023-02-28T19:20:18;-0.40;99.90
11619;DHT22;5865;48.776;9.280;2023-02-28T19:22:44;-0.40;99.90
11619;DHT22;5865;48.776;9.280;2023-02-28T19:25:13;-0.20;99.90
11619;DHT22;5865;48.776;9.280;2023-02-28T19:30:08;-0.10;99.90
11619;DHT22;5865;48.776;9.280;2023-02-28T19:35:03;0.00;99.90
11619;DHT22;5865;48.776;9.280;2023-02-28T19:37:30;-0.10;99.90
11619;DHT22;5865;48.776;9.280;2023-02-28T19:42:26;-0.20;99.90
11619;DHT22;5865;48.776;9.280;2023-02-28T19:44:57;-0.10;99.90
11619;DHT22;5865;48.776;9.280;2023-02-28T19:59:50;-0.10;99.90
11619;DHT22;5865;48.776;9.280;2023-02-28T20:02:19;-0.40;99.90
11619;DHT22;5865;48.776;9.280;2023-02-28T20:09:44;-0.20;99.90
11619;DHT22;5865;48.776;9.280;2023-02-28T20:17:10;-0.10;99.90
11619;DHT22;5865;48.776;9.280;2023-02-28T20:34:39;-0.10;99.90
11619;DHT22;5865;48.776;9.280;2023-02-28T21:12:48;-0.30;99.90
11619;DHT22;5865;48.776;9.280;2023-02-28T21:15:18;-0.20;99.90
11619;DHT22;5865;48.776;9.280;2023-02-28T21:40:32;-0.10;99.90
11619;DHT22;5865;48.776;9.280;2023-02-28T21:50:23;-0.10;99.90
11619;DHT22;5865;48.776;9.280;2023-02-28T22:02:41;-0.30;99.90
11619;DHT22;5865;48.776;9.280;2023-02-28T22:05:08;-0.30;99.90
11619;DHT22;5865;48.776;9.280;2023-02-28T22:07:35;-0.30;99.90
11619;DHT22;5865;48.776;9.280;2023-02-28T22:15:00;-0.30;99.90
11619;DHT22;5865;48.776;9.280;2023-02-28T22:34:49;-0.30;99.90
11619;DHT22;5865;48.776;9.280;2023-02-28T22:39:43;-0.10;99.90
11619;DHT22;5865;48.776;9.280;2023-02-28T23:01:49;-0.30;99.90
11619;DHT22;5865;48.776;9.280;2023-02-28T23:09:15;-0.20;99.90
11619;DHT22;5865;48.776;9.280;2023-02-28T23:11:45;-0.30;99.90
11619;DHT22;5865;48.776;9.280;2023-02-28T23:14:14;-0.30;99.90
11619;DHT22;5865;48.776;9.280;2023-02-28T23:16:43;-0.30;99.90
11619;DHT22;5865;48.776;9.280;2023-02-28T23:19:13;-0.10;99.90
11619;DHT22;5865;48.776;9.280;2023-02-28T23:21:41;0.00;99.90
11619;DHT22;5865;48.776;9.280;2023-02-28T23:24:10;-0.40;99.90
11619;DHT22;5865;48.776;9.280;2023-02-28T23:26:40;-0.30;99.90
11619;DHT22;5865;48.776;9.280;2023-02-28T23:29:09;-0.40;99.90
11619;DHT22;5865;48.776;9.280;2023-02-28T23:36:30;-0.50;99.90
11619;DHT22;5865;48.776;9.280;2023-02-28T23:38:57;-0.60;99.90
11619;DHT22;5865;48.776;9.280;2023-02-28T23:43:53;-0.70;99.90
11619;DHT22;5865;48.776;9.280;2023-02-28T23:46:21;-1.00;99.90
11619;DHT22;5865;48.776;9.280;2023-02-28T23:48:48;-1.30;99.90
11619;DHT22;5865;48.776;9.280;2023-02-28T23:51:18;-1.00;99.90
11619;DHT22;5865;48.776;9.280;2023-02-28T23:53:46;-1.20;99.90
11619;DHT22;5865;48.776;9.280;2023-02-28T23:56:15;-1.00;99.90
11619;DHT22;5865;48.776;9.280;2023-02-28T23:58:43;-1.00;99.90
